Essex, Vermont
Current Conditions -  °F | °C
As of 7:54 AM on Wednesday 26 Nov 2014 (Local Time) from KBTV Reporting Station
Broken Clouds Broken Clouds  
Wind Chill: 36°   Ceiling: 4200
Heat Index: 36°   Visibility: 10mi
Dew Point: 23°   Wind: 0mph
Humidity: 59%   Direction: NA
Pressure: 30.24"   Gusts: NA
Location:  44.51°N, 73.05°W
Report Text: KBTV 261254Z 00000KT 10SM BKN042 BKN140 02/M05 A3024 RMK AO2 SLP242 T00221050
Loading
Personal Weather Stations






























Interactive Weather Map New forecast layout! Learn more

10-Day Weather Forecast

Advertisements
Track Severe Weather on mobile